createdAt,value
2019-04-10T00:01:19.512Z,4.90
2019-04-10T00:03:50.443Z,4.80
2019-04-10T00:06:21.650Z,4.70
2019-04-10T00:08:52.838Z,4.60
2019-04-10T00:11:24.935Z,4.50
2019-04-10T00:13:55.788Z,4.50
2019-04-10T00:16:26.284Z,4.40
2019-04-10T00:18:56.796Z,4.40
2019-04-10T00:21:27.283Z,4.30
2019-04-10T00:23:57.749Z,4.20
2019-04-10T00:26:28.300Z,4.20
2019-04-10T00:29:01.168Z,4.20
2019-04-10T00:31:31.837Z,4.20
2019-04-10T00:34:02.578Z,4.10
2019-04-10T00:36:33.226Z,4.10
2019-04-10T00:39:08.548Z,4.10
2019-04-10T00:41:39.260Z,4.10
2019-04-10T00:44:09.845Z,4.10
2019-04-10T00:46:40.380Z,4.10
2019-04-10T00:49:10.849Z,4.10
2019-04-10T00:51:41.632Z,4.10
2019-04-10T00:54:12.233Z,4.10
2019-04-10T00:56:43.343Z,4.10
2019-04-10T00:59:16.096Z,4.10
2019-04-10T01:01:46.604Z,4.10
2019-04-10T01:04:18.123Z,4.10
2019-04-10T01:06:48.608Z,4.20
2019-04-10T01:09:19.464Z,4.10
2019-04-10T01:11:49.988Z,4.10
2019-04-10T01:14:21.302Z,4.10
2019-04-10T01:16:51.945Z,4.10
2019-04-10T01:19:22.347Z,4.20
2019-04-10T01:21:52.844Z,4.10
2019-04-10T01:24:23.764Z,4.10
2019-04-10T01:26:54.284Z,4.00
2019-04-10T01:29:25.174Z,4.00
2019-04-10T01:31:55.714Z,4.00
2019-04-10T01:34:26.222Z,4.00
2019-04-10T01:36:56.704Z,4.10
2019-04-10T01:39:30.475Z,4.00
2019-04-10T01:42:01.101Z,4.00
2019-04-10T01:44:33.003Z,4.00
2019-04-10T01:47:04.599Z,4.00
2019-04-10T01:49:37.899Z,4.00
2019-04-10T01:52:08.905Z,4.00
2019-04-10T01:54:39.597Z,4.00
2019-04-10T01:57:13.098Z,3.90
2019-04-10T01:59:43.304Z,3.90
2019-04-10T02:02:21.690Z,3.90
2019-04-10T02:04:53.713Z,3.90
2019-04-10T02:07:25.116Z,3.90
2019-04-10T02:09:56.182Z,3.90
2019-04-10T02:12:26.820Z,3.90
2019-04-10T02:14:57.525Z,3.90
2019-04-10T02:17:28.579Z,3.80
2019-04-10T02:20:00.820Z,3.80
2019-04-10T02:22:32.883Z,3.80
2019-04-10T02:25:03.572Z,3.80
2019-04-10T02:27:34.387Z,3.70
2019-04-10T02:30:07.714Z,3.70
2019-04-10T02:32:39.414Z,3.70
2019-04-10T02:35:13.148Z,3.70
2019-04-10T02:37:43.428Z,3.70
2019-04-10T02:40:15.042Z,3.70
2019-04-10T02:42:47.159Z,3.60
2019-04-10T02:45:19.056Z,3.60
2019-04-10T02:47:50.953Z,3.60
2019-04-10T02:50:23.116Z,3.50
2019-04-10T02:52:54.991Z,3.50
2019-04-10T02:55:27.224Z,3.50
2019-04-10T02:57:58.779Z,3.50
2019-04-10T03:00:30.458Z,3.50
2019-04-10T03:03:03.477Z,3.50
2019-04-10T03:05:35.474Z,3.40
2019-04-10T03:08:06.991Z,3.40
2019-04-10T03:10:44.116Z,3.40
2019-04-10T03:13:11.697Z,3.40
2019-04-10T03:15:43.474Z,3.30
2019-04-10T03:18:14.707Z,3.30
2019-04-10T03:20:45.256Z,3.30
2019-04-10T03:23:17.648Z,3.30
2019-04-10T03:25:48.840Z,3.30
2019-04-10T03:28:19.387Z,3.30
2019-04-10T03:30:49.938Z,3.30
2019-04-10T03:33:40.614Z,3.30
2019-04-10T03:36:09.542Z,3.30
2019-04-10T03:38:54.543Z,3.30
2019-04-10T03:41:12.327Z,3.40
2019-04-10T03:43:43.711Z,3.40
2019-04-10T03:46:14.225Z,3.40
2019-04-10T03:48:45.218Z,3.40
2019-04-10T03:51:16.544Z,3.40
2019-04-10T03:53:47.244Z,3.40
2019-04-10T03:56:18.032Z,3.40
2019-04-10T03:58:49.530Z,3.40
2019-04-10T04:01:20.203Z,3.50
2019-04-10T04:03:51.149Z,3.40
2019-04-10T04:06:21.816Z,3.40
2019-04-10T04:09:03.276Z,3.50
2019-04-10T04:11:24.493Z,3.40
2019-04-10T04:13:55.572Z,3.50
2019-04-10T04:16:26.896Z,3.50
2019-04-10T04:18:57.692Z,3.50
2019-04-10T04:21:28.428Z,3.40
2019-04-10T04:23:59.428Z,3.50
2019-04-10T04:26:30.041Z,3.50
2019-04-10T04:29:00.567Z,3.40
2019-04-10T04:31:31.262Z,3.50
2019-04-10T04:34:01.952Z,3.50
2019-04-10T04:36:33.031Z,3.50
2019-04-10T04:39:17.938Z,3.50
2019-04-10T04:41:38.046Z,3.60
2019-04-10T04:44:08.525Z,3.60
2019-04-10T04:46:39.122Z,3.60
2019-04-10T04:49:09.582Z,3.60
2019-04-10T04:51:40.071Z,3.60
2019-04-10T04:54:10.535Z,3.60
2019-04-10T04:56:42.299Z,3.50
2019-04-10T04:59:12.806Z,3.60
2019-04-10T05:01:43.356Z,3.60
2019-04-10T05:04:13.841Z,3.60
2019-04-10T05:06:44.423Z,3.60
2019-04-10T05:09:28.347Z,3.60
2019-04-10T05:11:47.133Z,3.60
2019-04-10T05:14:19.569Z,3.70
2019-04-10T05:16:50.085Z,3.70
2019-04-10T05:19:21.041Z,3.70
2019-04-10T05:21:51.919Z,3.70
2019-04-10T05:24:22.627Z,3.70
2019-04-10T05:26:57.081Z,3.70
2019-04-10T05:29:30.386Z,3.70
2019-04-10T05:32:00.962Z,3.70
2019-04-10T05:34:31.794Z,3.80
2019-04-10T05:37:03.157Z,3.90
2019-04-10T05:39:40.582Z,3.90
2019-04-10T05:42:06.417Z,3.90
2019-04-10T05:44:38.052Z,4.00
2019-04-10T05:47:10.171Z,4.00
2019-04-10T05:49:41.495Z,4.00
2019-04-10T05:52:12.656Z,4.10
2019-04-10T05:54:43.801Z,4.10
2019-04-10T05:57:14.460Z,4.20
2019-04-10T05:59:45.895Z,4.20
2019-04-10T06:02:16.547Z,4.10
2019-04-10T06:04:47.179Z,4.10
2019-04-10T06:07:17.758Z,4.20
2019-04-10T06:09:55.770Z,4.20
2019-04-10T06:12:20.423Z,4.20
2019-04-10T06:14:50.886Z,4.20
2019-04-10T06:17:22.620Z,4.20
2019-04-10T06:19:54.387Z,4.30
2019-04-10T06:22:24.884Z,4.20
2019-04-10T06:24:56.552Z,4.20
2019-04-10T06:27:28.251Z,4.20
2019-04-10T06:29:59.418Z,4.20
2019-04-10T06:32:29.993Z,4.20
2019-04-10T06:35:01.766Z,4.30
2019-04-10T06:37:34.546Z,4.30
2019-04-10T06:40:14.222Z,4.40
2019-04-10T06:42:46.206Z,4.40
2019-04-10T06:45:11.374Z,4.50
2019-04-10T06:47:44.631Z,4.60
2019-04-10T06:50:16.892Z,4.50
2019-04-10T06:52:47.667Z,4.60
2019-04-10T06:55:18.584Z,4.70
2019-04-10T06:57:55.788Z,4.70
2019-04-10T07:00:23.001Z,4.70
2019-04-10T07:02:56.655Z,4.70
2019-04-10T07:05:37.163Z,4.70
2019-04-10T07:08:09.161Z,4.80
2019-04-10T07:10:42.645Z,5.00
2019-04-10T07:13:06.292Z,5.10
2019-04-10T07:15:36.268Z,5.00
2019-04-10T07:18:08.156Z,5.10
2019-04-10T07:20:40.066Z,5.20
2019-04-10T07:23:13.103Z,5.20
2019-04-10T07:25:45.517Z,5.40
2019-04-10T07:28:14.977Z,5.40
2019-04-10T07:30:45.712Z,5.40
2019-04-10T07:33:19.427Z,5.50
2019-04-10T07:35:49.954Z,5.50
2019-04-10T07:38:21.323Z,5.50
2019-04-10T07:40:52.297Z,5.60
2019-04-10T07:43:26.162Z,5.70
2019-04-10T07:45:56.873Z,5.70
2019-04-10T07:48:27.394Z,5.80
2019-04-10T07:50:57.910Z,5.90
2019-04-10T07:53:28.429Z,5.80
2019-04-10T07:56:06.488Z,5.70
2019-04-10T07:58:31.225Z,5.70
2019-04-10T08:01:03.103Z,5.60
2019-04-10T08:03:33.745Z,5.50
2019-04-10T08:06:04.623Z,5.70
2019-04-10T08:08:36.200Z,5.50
2019-04-10T08:11:07.144Z,5.50
2019-04-10T08:13:38.501Z,5.60
2019-04-10T08:16:09.052Z,5.80
2019-04-10T08:18:39.543Z,5.90
2019-04-10T08:21:10.024Z,5.80
2019-04-10T08:23:40.721Z,5.90
2019-04-10T08:26:12.160Z,5.90
2019-04-10T08:28:43.314Z,6.00
2019-04-10T08:31:16.982Z,5.90
2019-04-10T08:33:47.646Z,5.90
2019-04-10T08:36:19.238Z,6.00
2019-04-10T08:38:50.775Z,6.20
2019-04-10T08:41:21.438Z,6.40
2019-04-10T08:43:52.246Z,6.20
2019-04-10T08:46:23.925Z,6.50
2019-04-10T08:48:54.617Z,6.70
2019-04-10T08:51:25.772Z,7.00
2019-04-10T08:53:56.813Z,7.20
2019-04-10T08:56:28.024Z,7.60
2019-04-10T08:58:59.282Z,7.90
2019-04-10T09:01:37.668Z,7.80
2019-04-10T09:04:09.954Z,7.80
2019-04-10T09:06:40.575Z,7.80
2019-04-10T09:09:11.173Z,8.00
2019-04-10T09:11:42.989Z,7.80
2019-04-10T09:14:13.800Z,7.60
2019-04-10T09:16:44.818Z,7.60
2019-04-10T09:19:16.100Z,7.60
2019-04-10T09:21:47.817Z,7.60
2019-04-10T09:24:19.527Z,7.50
2019-04-10T09:26:50.837Z,7.70
2019-04-10T09:29:23.198Z,7.90
2019-04-10T09:31:53.798Z,8.00
2019-04-10T09:34:24.230Z,7.70
2019-04-10T09:36:54.778Z,7.80
2019-04-10T09:39:27.561Z,8.00
2019-04-10T09:41:58.716Z,8.20
2019-04-10T09:44:29.849Z,8.40
2019-04-10T09:47:00.625Z,8.60
2019-04-10T09:49:38.982Z,8.70
2019-04-10T09:52:06.914Z,9.00
2019-04-10T09:54:38.278Z,8.90
2019-04-10T09:57:09.170Z,8.70
2019-04-10T09:59:41.145Z,8.60
2019-04-10T10:02:11.860Z,8.30
2019-04-10T10:04:43.788Z,8.00
2019-04-10T10:07:14.474Z,7.70
2019-04-10T10:09:45.189Z,7.60
2019-04-10T10:12:16.019Z,7.50
2019-04-10T10:14:48.382Z,7.60
2019-04-10T10:17:20.207Z,7.30
2019-04-10T10:19:53.419Z,7.30
2019-04-10T10:22:23.184Z,7.10
2019-04-10T10:24:55.089Z,7.10
2019-04-10T10:27:26.780Z,7.30
2019-04-10T10:29:57.930Z,7.40
2019-04-10T10:32:29.594Z,7.40
2019-04-10T10:35:01.027Z,7.50
2019-04-10T10:37:32.613Z,7.70
2019-04-10T10:40:03.493Z,7.60
2019-04-10T10:42:37.038Z,7.50
2019-04-10T10:45:08.141Z,7.30
2019-04-10T10:47:38.745Z,7.40
2019-04-10T10:50:09.771Z,7.70
2019-04-10T10:52:40.363Z,7.60
2019-04-10T10:55:11.650Z,7.60
2019-04-10T10:57:42.266Z,7.60
2019-04-10T11:00:14.687Z,7.50
2019-04-10T11:02:45.607Z,7.60
2019-04-10T11:05:17.007Z,7.50
2019-04-10T11:07:48.874Z,7.40
2019-04-10T11:10:22.889Z,7.50
2019-04-10T11:12:52.172Z,7.50
2019-04-10T11:15:24.111Z,7.40
2019-04-10T11:17:56.122Z,7.50
2019-04-10T11:20:27.967Z,7.60
2019-04-10T11:23:00.374Z,7.70
2019-04-10T11:25:32.369Z,7.70
2019-04-10T11:28:04.003Z,7.80
2019-04-10T11:30:34.671Z,7.90
2019-04-10T11:33:06.206Z,7.90
2019-04-10T11:35:37.323Z,7.80
2019-04-10T11:38:08.642Z,7.90
2019-04-10T11:40:39.291Z,8.00
2019-04-10T11:43:10.103Z,8.20
2019-04-10T11:45:45.499Z,8.40
2019-04-10T11:48:13.511Z,8.70
2019-04-10T11:50:46.065Z,8.60
2019-04-10T11:53:17.737Z,8.70
2019-04-10T11:55:52.398Z,8.90
2019-04-10T11:58:21.748Z,8.70
2019-04-10T12:00:56.042Z,8.50
2019-04-10T12:03:27.015Z,8.60
2019-04-10T12:05:59.554Z,8.40
2019-04-10T12:13:32.518Z,8.50
2019-04-10T12:16:03.076Z,8.70
2019-04-10T12:18:33.693Z,8.60
2019-04-10T12:21:05.217Z,8.60
2019-04-10T12:23:36.894Z,8.50
2019-04-10T12:26:07.574Z,8.60
2019-04-10T12:28:38.230Z,8.50
2019-04-10T12:31:09.982Z,8.20
2019-04-10T12:33:42.454Z,8.20
2019-04-10T12:36:14.124Z,8.20
2019-04-10T12:38:44.654Z,8.20
2019-04-10T12:41:15.223Z,8.20
2019-04-10T12:43:47.359Z,8.30
2019-04-10T12:46:19.041Z,8.30
2019-04-10T12:48:50.619Z,8.40
2019-04-10T12:51:21.488Z,8.40
2019-04-10T12:53:52.312Z,8.40
2019-04-10T12:56:24.037Z,8.60
2019-04-10T12:58:55.156Z,8.60
2019-04-10T13:01:26.856Z,8.60
2019-04-10T13:03:57.866Z,8.50
2019-04-10T13:06:29.650Z,8.40
2019-04-10T13:09:07.352Z,8.50
2019-04-10T13:11:34.383Z,8.30
2019-04-10T13:14:05.032Z,8.40
2019-04-10T13:16:36.252Z,8.60
2019-04-10T13:19:07.033Z,8.60
2019-04-10T13:21:38.800Z,8.50
2019-04-10T13:24:09.392Z,8.50
2019-04-10T13:26:39.862Z,8.40
2019-04-10T13:29:10.394Z,8.50
2019-04-10T13:31:40.922Z,8.50
2019-04-10T13:34:11.508Z,8.50
2019-04-10T13:36:42.218Z,8.40
2019-04-10T13:39:17.266Z,8.40
2019-04-10T13:41:47.369Z,8.50
2019-04-10T13:44:18.750Z,8.70
2019-04-10T13:46:49.238Z,8.80
2019-04-10T13:49:19.976Z,8.90
2019-04-10T13:51:50.374Z,9.00
2019-04-10T13:54:20.891Z,8.90
2019-04-10T13:56:51.347Z,8.70
2019-04-10T13:59:22.643Z,8.60
2019-04-10T14:01:53.253Z,8.60
2019-04-10T14:04:25.018Z,8.50
2019-04-10T14:06:55.859Z,8.50
2019-04-10T14:09:35.854Z,8.40
2019-04-10T14:11:59.749Z,8.40
2019-04-10T14:14:30.937Z,8.60
2019-04-10T14:17:04.391Z,8.50
2019-04-10T14:19:33.915Z,8.50
2019-04-10T14:22:05.257Z,8.40
2019-04-10T14:24:42.885Z,8.50
2019-04-10T14:27:12.396Z,8.50
2019-04-10T14:29:42.878Z,8.60
2019-04-10T14:32:18.855Z,8.80
2019-04-10T14:34:50.422Z,8.80
2019-04-10T14:37:21.195Z,8.80
2019-04-10T14:39:51.853Z,8.70
2019-04-10T14:42:22.489Z,8.60
2019-04-10T14:44:53.140Z,8.70
2019-04-10T14:47:25.406Z,8.60
2019-04-10T14:49:56.996Z,8.60
2019-04-10T14:52:29.404Z,8.60
2019-04-10T14:54:59.985Z,8.70
2019-04-10T14:57:30.761Z,8.60
2019-04-10T15:00:01.419Z,8.60
2019-04-10T15:02:32.779Z,8.60
2019-04-10T15:05:03.766Z,8.50
2019-04-10T15:07:35.192Z,8.50
2019-04-10T15:10:06.064Z,8.50
2019-04-10T15:12:37.382Z,8.50
2019-04-10T15:15:08.020Z,8.40
2019-04-10T15:17:40.654Z,8.30
2019-04-10T15:20:11.257Z,8.30
2019-04-10T15:22:42.797Z,8.20
2019-04-10T15:25:13.298Z,8.20
2019-04-10T15:27:46.023Z,8.20
2019-04-10T15:30:17.004Z,8.30
2019-04-10T15:32:49.720Z,8.30
2019-04-10T15:35:20.349Z,8.30
2019-04-10T15:37:50.957Z,8.20
2019-04-10T15:40:25.530Z,8.20
2019-04-10T15:42:54.561Z,8.20
2019-04-10T15:45:28.085Z,8.20
2019-04-10T15:48:00.160Z,8.10
2019-04-10T15:50:31.119Z,8.10
2019-04-10T15:53:02.124Z,8.00
2019-04-10T15:55:34.015Z,8.00
2019-04-10T15:58:05.219Z,8.00
2019-04-10T16:00:37.149Z,7.80
2019-04-10T16:03:11.347Z,7.70
2019-04-10T16:05:41.908Z,7.70
2019-04-10T16:08:14.564Z,7.70
2019-04-10T16:11:01.889Z,7.60
2019-04-10T16:13:38.781Z,7.60
2019-04-10T16:16:27.641Z,7.40
2019-04-10T16:19:22.378Z,7.40
2019-04-10T16:21:54.284Z,7.40
2019-04-10T16:24:24.963Z,7.30
2019-04-10T16:26:55.834Z,7.40
2019-04-10T16:29:26.745Z,7.30
2019-04-10T16:31:57.387Z,7.40
2019-04-10T16:34:27.982Z,7.30
2019-04-10T16:36:58.472Z,7.40
2019-04-10T16:39:29.985Z,7.40
2019-04-10T16:42:00.590Z,7.40
2019-04-10T16:44:31.128Z,7.30
2019-04-10T16:47:01.618Z,7.20
2019-04-10T16:49:32.926Z,7.20
2019-04-10T16:52:03.554Z,7.20
2019-04-10T16:54:35.371Z,7.20
2019-04-10T16:57:06.625Z,7.20
2019-04-10T16:59:37.605Z,7.20
2019-04-10T17:02:09.313Z,7.10
2019-04-10T17:04:39.941Z,7.10
2019-04-10T17:07:10.633Z,7.10
2019-04-10T17:09:41.180Z,7.10
2019-04-10T17:12:11.729Z,7.10
2019-04-10T17:14:42.334Z,7.10
2019-04-10T17:17:12.990Z,7.10
2019-04-10T17:19:51.911Z,7.00
2019-04-10T17:22:24.172Z,7.00
2019-04-10T17:24:49.366Z,6.90
2019-04-10T17:27:21.595Z,7.00
2019-04-10T17:29:53.495Z,6.90
2019-04-10T17:32:24.301Z,6.90
2019-04-10T17:34:54.957Z,6.90
2019-04-10T17:37:25.733Z,6.80
2019-04-10T17:39:57.636Z,6.80
2019-04-10T17:42:30.409Z,6.80
2019-04-10T17:45:01.184Z,6.70
2019-04-10T17:47:31.749Z,6.70
2019-04-10T17:50:03.578Z,6.70
2019-04-10T17:52:40.839Z,6.70
2019-04-10T17:55:11.557Z,6.70
2019-04-10T17:57:44.614Z,6.70
2019-04-10T18:00:22.949Z,6.70
2019-04-10T18:02:54.975Z,6.60
2019-04-10T18:05:28.663Z,6.60
2019-04-10T18:08:00.690Z,6.60
2019-04-10T18:10:43.560Z,6.60
2019-04-10T18:13:05.311Z,6.50
2019-04-10T18:15:37.808Z,6.50
2019-04-10T18:18:08.488Z,6.50
2019-04-10T18:20:40.055Z,6.50
2019-04-10T18:23:11.377Z,6.50
2019-04-10T18:25:44.447Z,6.50
2019-04-10T18:28:15.041Z,6.50
2019-04-10T18:30:48.148Z,6.50
2019-04-10T18:33:20.404Z,6.50
2019-04-10T18:35:51.210Z,6.50
2019-04-10T18:38:21.709Z,6.50
2019-04-10T18:40:58.345Z,6.50
2019-04-10T18:43:25.597Z,6.50
2019-04-10T18:46:09.051Z,6.50
2019-04-10T18:48:30.875Z,6.40
2019-04-10T18:51:01.505Z,6.50
2019-04-10T18:53:35.216Z,6.50
2019-04-10T18:56:06.985Z,6.40
2019-04-10T18:58:50.219Z,6.40
2019-04-10T19:01:43.317Z,6.40
2019-04-10T19:04:18.242Z,6.40
2019-04-10T19:06:58.605Z,6.40
2019-04-10T19:09:30.810Z,6.40
2019-04-10T19:12:02.508Z,6.40
2019-04-10T19:14:36.624Z,6.40
2019-04-10T19:17:08.945Z,6.30
2019-04-10T19:19:42.154Z,6.40
2019-04-10T19:22:15.882Z,6.40
2019-04-10T19:24:46.496Z,6.40
2019-04-10T19:27:18.083Z,6.40
2019-04-10T19:29:48.866Z,6.30
2019-04-10T19:32:26.721Z,6.30
2019-04-10T19:34:59.002Z,6.30
2019-04-10T19:37:30.379Z,6.30
2019-04-10T19:40:02.873Z,6.30
2019-04-10T19:42:33.787Z,6.30
2019-04-10T19:45:07.739Z,6.20
2019-04-10T19:47:38.837Z,6.30
2019-04-10T19:50:11.001Z,6.20
2019-04-10T19:52:41.694Z,6.20
2019-04-10T19:55:13.491Z,6.20
2019-04-10T19:57:44.182Z,6.20
2019-04-10T20:00:16.530Z,6.20
2019-04-10T20:02:47.421Z,6.20
2019-04-10T20:05:17.969Z,6.20
2019-04-10T20:07:49.213Z,6.20
2019-04-10T20:10:21.358Z,6.20
2019-04-10T20:12:52.935Z,6.20
2019-04-10T20:15:24.696Z,6.20
2019-04-10T20:17:55.287Z,6.10
2019-04-10T20:20:26.973Z,6.10
2019-04-10T20:22:58.273Z,6.20
2019-04-10T20:25:30.257Z,6.10
2019-04-10T20:28:01.157Z,6.20
2019-04-10T20:30:32.902Z,6.10
2019-04-10T20:33:03.723Z,6.10
2019-04-10T20:35:34.276Z,6.10
2019-04-10T20:38:04.858Z,6.10
2019-04-10T20:40:36.102Z,6.10
2019-04-10T20:43:09.064Z,6.10
2019-04-10T20:45:41.983Z,6.10
2019-04-10T20:48:12.678Z,6.10
2019-04-10T20:50:43.900Z,6.10
2019-04-10T20:53:14.387Z,6.10
2019-04-10T20:55:46.044Z,6.10
2019-04-10T20:58:17.675Z,6.10
2019-04-10T21:00:49.798Z,6.10
2019-04-10T21:03:20.461Z,6.10
2019-04-10T21:05:51.171Z,6.10
2019-04-10T21:08:22.044Z,6.10
2019-04-10T21:10:52.777Z,6.10
2019-04-10T21:13:23.513Z,6.10
2019-04-10T21:15:54.951Z,6.10
2019-04-10T21:18:25.544Z,6.00
2019-04-10T21:20:57.506Z,6.10
2019-04-10T21:23:29.266Z,6.00
2019-04-10T21:25:59.872Z,6.00
2019-04-10T21:28:30.613Z,6.00
2019-04-10T21:31:25.120Z,6.00
2019-04-10T21:34:27.071Z,6.00
2019-04-10T21:36:57.684Z,6.00
2019-04-10T21:39:28.230Z,6.00
2019-04-10T21:42:09.944Z,6.00
2019-04-10T21:44:31.048Z,5.90
2019-04-10T21:47:03.464Z,5.90
2019-04-10T21:49:34.065Z,5.90
2019-04-10T21:52:05.615Z,5.90
2019-04-10T21:54:44.373Z,5.90
2019-04-10T21:57:09.555Z,5.80
2019-04-10T21:59:40.085Z,5.80
2019-04-10T22:02:11.130Z,5.80
2019-04-10T22:04:41.725Z,5.80
2019-04-10T22:07:41.629Z,5.80
2019-04-10T22:10:28.067Z,5.80
2019-04-10T22:12:59.483Z,5.70
2019-04-10T22:15:35.205Z,5.70
2019-04-10T22:18:07.152Z,5.70
2019-04-10T22:20:37.803Z,5.60
2019-04-10T22:23:09.700Z,5.60
2019-04-10T22:25:40.483Z,5.60
2019-04-10T22:28:10.981Z,5.60
2019-04-10T22:30:41.612Z,5.60
2019-04-10T22:33:12.163Z,5.60
2019-04-10T22:35:42.740Z,5.50
2019-04-10T22:38:13.211Z,5.50
2019-04-10T22:40:44.181Z,5.50
2019-04-10T22:43:15.946Z,5.40
2019-04-10T22:45:48.593Z,5.40
2019-04-10T22:48:19.329Z,5.40
2019-04-10T22:50:51.326Z,5.30
2019-04-10T22:53:21.918Z,5.30
2019-04-10T22:55:52.825Z,5.20
2019-04-10T22:58:24.558Z,5.20
2019-04-10T23:00:55.910Z,5.20
2019-04-10T23:03:26.348Z,5.10
2019-04-10T23:05:57.009Z,5.10
2019-04-10T23:08:27.439Z,5.00
2019-04-10T23:10:57.959Z,5.00
2019-04-10T23:13:28.374Z,5.00
2019-04-10T23:16:00.099Z,5.00
2019-04-10T23:18:31.729Z,4.90
2019-04-10T23:21:03.999Z,4.90
2019-04-10T23:23:34.925Z,4.90
2019-04-10T23:26:06.939Z,4.90
2019-04-10T23:28:37.936Z,4.90
2019-04-10T23:31:09.727Z,4.80
2019-04-10T23:33:40.203Z,4.80
2019-04-10T23:36:10.812Z,4.80
2019-04-10T23:38:41.770Z,4.80
2019-04-10T23:41:13.666Z,4.80
2019-04-10T23:43:44.567Z,4.80
2019-04-10T23:46:15.194Z,4.70
2019-04-10T23:48:46.752Z,4.70
2019-04-10T23:51:17.428Z,4.70
2019-04-10T23:53:48.959Z,4.70
2019-04-10T23:56:19.911Z,4.70
2019-04-10T23:58:50.752Z,4.70
